createdAt,value
2023-05-14T00:00:54.711Z,1.77
2023-05-14T00:03:22.510Z,1.77
2023-05-14T00:05:50.778Z,1.77
2023-05-14T00:08:19.875Z,2.10
2023-05-14T00:10:47.623Z,1.90
2023-05-14T00:13:15.528Z,1.75
2023-05-14T00:15:43.347Z,1.70
2023-05-14T00:18:12.118Z,1.83
2023-05-14T00:20:39.943Z,2.05
2023-05-14T00:23:07.718Z,1.77
2023-05-14T00:25:37.161Z,1.58
2023-05-14T00:28:05.192Z,2.25
2023-05-14T00:30:33.081Z,2.00
2023-05-14T00:33:00.998Z,1.75
2023-05-14T00:35:28.866Z,1.67
2023-05-14T00:37:56.656Z,1.90
2023-05-14T00:40:27.359Z,1.80
2023-05-14T00:42:57.612Z,2.10
2023-05-14T00:45:25.602Z,1.98
2023-05-14T00:47:54.396Z,2.17
2023-05-14T00:50:22.557Z,2.05
2023-05-14T00:52:50.752Z,1.85
2023-05-14T00:55:20.618Z,2.53
2023-05-14T00:57:48.350Z,2.40
2023-05-14T01:00:18.604Z,2.58
2023-05-14T01:02:46.507Z,2.70
2023-05-14T01:05:14.346Z,2.30
2023-05-14T01:07:50.340Z,2.60
2023-05-14T01:13:01.291Z,2.72
2023-05-14T01:15:34.205Z,2.85
2023-05-14T01:18:09.650Z,2.65
2023-05-14T01:20:37.964Z,2.70
2023-05-14T01:23:07.064Z,2.72
2023-05-14T01:25:35.350Z,2.55
2023-05-14T01:28:10.392Z,2.75
2023-05-14T01:30:41.395Z,3.17
2023-05-14T01:33:13.044Z,3.22
2023-05-14T01:35:41.445Z,3.00
2023-05-14T01:38:13.245Z,3.42
2023-05-14T01:40:41.849Z,2.67
2023-05-14T01:43:10.122Z,3.47
2023-05-14T01:45:38.091Z,3.08
2023-05-14T01:48:06.647Z,3.13
2023-05-14T01:50:34.467Z,2.75
2023-05-14T01:53:02.288Z,3.40
2023-05-14T01:55:31.389Z,2.58
2023-05-14T01:57:59.165Z,2.88
2023-05-14T02:00:27.260Z,3.25
2023-05-14T02:02:55.037Z,7.15
2023-05-14T02:05:22.909Z,4.65
2023-05-14T02:07:51.278Z,3.88
2023-05-14T02:10:19.075Z,3.30
2023-05-14T02:12:48.152Z,3.75
2023-05-14T02:15:15.843Z,3.35
2023-05-14T02:17:43.639Z,3.53
2023-05-14T02:20:12.807Z,3.25
2023-05-14T02:22:42.141Z,3.28
2023-05-14T02:25:11.055Z,3.35
2023-05-14T02:27:38.770Z,2.92
2023-05-14T02:30:09.689Z,3.33
2023-05-14T02:32:37.969Z,3.63
2023-05-14T02:35:06.698Z,3.65
2023-05-14T02:37:34.609Z,3.17
2023-05-14T02:40:02.537Z,3.58
2023-05-14T02:42:30.360Z,3.13
2023-05-14T02:44:58.064Z,3.13
2023-05-14T02:47:27.202Z,3.28
2023-05-14T02:49:55.015Z,3.30
2023-05-14T02:52:22.896Z,4.05
2023-05-14T02:54:50.617Z,2.95
2023-05-14T02:57:18.304Z,3.75
2023-05-14T02:59:46.029Z,3.08
2023-05-14T03:02:14.305Z,3.50
2023-05-14T03:04:44.047Z,3.00
2023-05-14T03:07:11.853Z,3.65
2023-05-14T03:09:39.563Z,3.63
2023-05-14T03:12:08.735Z,3.70
2023-05-14T03:14:36.534Z,3.65
2023-05-14T03:17:04.463Z,3.95
2023-05-14T03:19:32.341Z,5.40
2023-05-14T03:22:01.531Z,4.53
2023-05-14T03:24:29.320Z,4.80
2023-05-14T03:26:57.018Z,4.50
2023-05-14T03:29:24.708Z,3.95
2023-05-14T03:31:52.942Z,5.55
2023-05-14T03:34:20.779Z,4.78
2023-05-14T03:36:48.516Z,3.72
2023-05-14T03:39:19.626Z,3.90
2023-05-14T03:41:47.400Z,4.28
2023-05-14T03:44:15.082Z,4.75
2023-05-14T03:46:42.799Z,5.13
2023-05-14T03:49:10.676Z,4.90
2023-05-14T03:51:38.595Z,4.85
2023-05-14T03:54:06.637Z,5.20
2023-05-14T03:56:35.704Z,5.28
2023-05-14T03:59:03.419Z,5.13
2023-05-14T04:01:31.168Z,4.93
2023-05-14T04:03:59.021Z,5.60
2023-05-14T04:06:26.804Z,5.13
2023-05-14T04:08:54.594Z,4.50
2023-05-14T04:11:23.502Z,4.68
2023-05-14T04:13:52.559Z,4.47
2023-05-14T04:16:20.304Z,5.38
2023-05-14T04:18:48.105Z,5.28
2023-05-14T04:21:15.838Z,4.43
2023-05-14T04:23:43.550Z,4.60
2023-05-14T04:26:11.276Z,4.30
2023-05-14T04:28:39.037Z,5.13
2023-05-14T04:31:08.193Z,5.28
2023-05-14T04:33:35.968Z,4.85
2023-05-14T04:36:05.041Z,4.90
2023-05-14T04:38:32.796Z,4.85
2023-05-14T04:41:00.496Z,5.30
2023-05-14T04:43:28.230Z,4.95
2023-05-14T04:45:56.085Z,4.68
2023-05-14T04:48:25.294Z,4.68
2023-05-14T04:50:53.154Z,5.20
2023-05-14T04:53:20.951Z,4.68
2023-05-14T04:55:48.641Z,5.25
2023-05-14T04:58:16.380Z,5.38
2023-05-14T05:00:45.312Z,4.75
2023-05-14T05:03:13.187Z,4.82
2023-05-14T05:05:42.499Z,5.55
2023-05-14T05:08:11.260Z,5.05
2023-05-14T05:10:39.021Z,5.50
2023-05-14T05:13:06.777Z,5.43
2023-05-14T05:15:34.572Z,4.72
2023-05-14T05:18:02.392Z,5.28
2023-05-14T05:20:30.185Z,4.90
2023-05-14T05:22:59.464Z,5.30
2023-05-14T05:25:27.719Z,5.00
2023-05-14T05:27:55.501Z,5.22
2023-05-14T05:30:23.476Z,4.95
2023-05-14T05:32:51.706Z,5.55
2023-05-14T05:35:19.626Z,5.78
2023-05-14T05:37:47.354Z,4.55
2023-05-14T05:40:16.908Z,4.20
2023-05-14T05:42:44.590Z,4.65
2023-05-14T05:45:12.485Z,4.55
2023-05-14T05:47:40.258Z,4.30
2023-05-14T05:50:09.609Z,5.10
2023-05-14T05:52:37.427Z,4.45
2023-05-14T05:55:05.861Z,4.47
2023-05-14T05:57:34.949Z,4.65
2023-05-14T06:00:09.855Z,4.57
2023-05-14T06:02:37.806Z,4.63
2023-05-14T06:05:06.879Z,4.35
2023-05-14T06:07:34.668Z,4.93
2023-05-14T06:10:02.684Z,4.50
2023-05-14T06:12:30.473Z,4.75
2023-05-14T06:14:59.670Z,4.57
2023-05-14T06:17:27.834Z,5.35
2023-05-14T06:19:55.667Z,4.30
2023-05-14T06:22:23.383Z,5.47
2023-05-14T06:24:51.093Z,4.97
2023-05-14T06:27:18.827Z,4.97
2023-05-14T06:29:46.577Z,4.88
2023-05-14T06:32:15.939Z,5.72
2023-05-14T06:34:43.927Z,5.40
2023-05-14T06:37:12.286Z,5.15
2023-05-14T06:39:44.028Z,5.25
2023-05-14T06:42:11.813Z,4.38
2023-05-14T06:44:39.531Z,3.63
2023-05-14T06:47:08.378Z,4.22
2023-05-14T06:49:37.745Z,3.78
2023-05-14T06:52:06.217Z,3.70
2023-05-14T06:54:34.164Z,4.07
2023-05-14T06:57:01.916Z,4.45
2023-05-14T06:59:29.693Z,3.67
2023-05-14T07:01:57.591Z,3.53
2023-05-14T07:04:25.361Z,4.95
2023-05-14T07:06:54.493Z,3.80
2023-05-14T07:09:22.441Z,3.80
2023-05-14T07:11:50.370Z,3.88
2023-05-14T07:14:18.165Z,9.15
2023-05-14T07:16:46.990Z,6.35
2023-05-14T07:19:15.041Z,4.07
2023-05-14T07:21:42.885Z,4.38
2023-05-14T07:24:11.961Z,3.80
2023-05-14T07:26:40.150Z,3.50
2023-05-14T07:29:08.374Z,3.45
2023-05-14T07:31:36.284Z,4.03
2023-05-14T07:34:04.182Z,4.57
2023-05-14T07:36:31.979Z,4.32
2023-05-14T07:38:59.766Z,4.00
2023-05-14T07:41:28.885Z,3.50
2023-05-14T07:43:56.606Z,4.45
2023-05-14T07:46:25.641Z,4.50
2023-05-14T07:48:53.358Z,4.65
2023-05-14T07:51:21.120Z,3.58
2023-05-14T07:53:48.915Z,3.85
2023-05-14T07:56:16.621Z,5.72
2023-05-14T07:58:46.063Z,5.53
2023-05-14T08:01:16.376Z,3.78
2023-05-14T08:03:45.006Z,3.97
2023-05-14T08:06:14.178Z,3.22
2023-05-14T08:08:42.878Z,3.30
2023-05-14T08:11:11.971Z,3.03
2023-05-14T08:13:41.838Z,4.13
2023-05-14T08:16:12.634Z,3.30
2023-05-14T08:18:42.388Z,5.40
2023-05-14T08:21:12.258Z,3.42
2023-05-14T08:23:41.925Z,4.20
2023-05-14T08:26:11.643Z,3.25
2023-05-14T08:28:42.160Z,3.50
2023-05-14T08:31:14.995Z,3.28
2023-05-14T08:33:44.885Z,3.00
2023-05-14T08:36:14.555Z,3.15
2023-05-14T08:38:44.744Z,3.42
2023-05-14T08:41:17.029Z,3.35
2023-05-14T08:43:54.157Z,3.30
2023-05-14T08:46:26.001Z,3.83
2023-05-14T08:48:59.861Z,3.28
2023-05-14T08:51:29.017Z,2.97
2023-05-14T08:54:01.200Z,3.35
2023-05-14T08:56:33.691Z,3.38
2023-05-14T08:59:01.670Z,3.00
2023-05-14T09:01:32.054Z,3.60
2023-05-14T09:04:01.372Z,3.38
2023-05-14T09:06:30.182Z,3.40
2023-05-14T09:08:57.969Z,3.60
2023-05-14T09:11:25.698Z,3.50
2023-05-14T09:13:53.566Z,3.42
2023-05-14T09:16:22.158Z,3.53
2023-05-14T09:18:52.643Z,3.15
2023-05-14T09:21:20.921Z,3.00
2023-05-14T09:23:49.725Z,3.08
2023-05-14T09:26:19.248Z,3.22
2023-05-14T09:28:47.313Z,3.47
2023-05-14T09:31:15.137Z,3.25
2023-05-14T09:33:42.954Z,3.22
2023-05-14T09:36:12.057Z,3.67
2023-05-14T09:38:39.820Z,3.15
2023-05-14T09:41:07.609Z,2.80
2023-05-14T09:43:35.336Z,3.00
2023-05-14T09:46:03.093Z,2.90
2023-05-14T09:48:30.938Z,2.70
2023-05-14T09:50:58.655Z,3.03
2023-05-14T09:53:27.901Z,2.80
2023-05-14T09:55:55.749Z,2.90
2023-05-14T09:58:23.547Z,2.72
2023-05-14T10:00:52.748Z,2.85
2023-05-14T10:03:23.771Z,2.72
2023-05-14T10:05:52.065Z,3.00
2023-05-14T10:08:23.211Z,3.10
2023-05-14T10:10:54.587Z,3.00
2023-05-14T10:13:25.196Z,3.13
2023-05-14T10:16:01.186Z,3.83
2023-05-14T10:18:32.695Z,2.97
2023-05-14T10:21:06.174Z,5.00
2023-05-14T10:23:34.601Z,2.65
2023-05-14T10:26:04.230Z,2.50
2023-05-14T10:28:33.190Z,2.47
2023-05-14T10:31:01.320Z,2.58
2023-05-14T10:33:29.198Z,2.22
2023-05-14T10:36:00.559Z,2.72
2023-05-14T10:38:29.323Z,2.53
2023-05-14T10:41:05.924Z,2.63
2023-05-14T10:43:38.374Z,2.70
2023-05-14T10:46:06.866Z,2.45
2023-05-14T10:48:35.193Z,2.47
2023-05-14T10:51:03.213Z,2.90
2023-05-14T10:53:35.521Z,2.10
2023-05-14T10:56:07.097Z,2.45
2023-05-14T10:58:38.028Z,2.58
2023-05-14T11:01:07.663Z,2.10
2023-05-14T11:03:42.727Z,2.55
2023-05-14T11:06:13.030Z,2.97
2023-05-14T11:08:41.654Z,2.58
2023-05-14T11:11:11.586Z,1.95
2023-05-14T11:13:39.592Z,2.45
2023-05-14T11:18:38.678Z,2.70
2023-05-14T11:21:06.835Z,2.70
2023-05-14T11:23:34.769Z,2.38
2023-05-14T11:26:02.906Z,2.47
2023-05-14T11:28:31.992Z,2.50
2023-05-14T11:31:00.097Z,2.40
2023-05-14T11:33:29.610Z,2.72
2023-05-14T11:35:57.419Z,2.53
2023-05-14T11:38:25.345Z,2.50
2023-05-14T11:40:54.160Z,2.58
2023-05-14T11:43:23.737Z,2.78
2023-05-14T11:45:54.454Z,2.63
2023-05-14T11:48:23.185Z,2.30
2023-05-14T11:50:52.390Z,2.40
2023-05-14T11:53:20.862Z,2.60
2023-05-14T11:55:49.148Z,3.15
2023-05-14T11:58:18.854Z,2.65
2023-05-14T12:00:47.361Z,3.20
2023-05-14T12:03:16.801Z,2.55
2023-05-14T12:05:56.591Z,2.83
2023-05-14T12:08:27.089Z,2.83
2023-05-14T12:10:54.927Z,2.30
2023-05-14T12:13:22.961Z,2.65
2023-05-14T12:15:56.203Z,2.40
2023-05-14T12:18:26.355Z,2.55
2023-05-14T12:20:54.267Z,2.45
2023-05-14T12:23:26.570Z,3.03
2023-05-14T12:25:54.401Z,2.50
2023-05-14T12:28:24.350Z,2.45
2023-05-14T12:30:57.992Z,2.63
2023-05-14T12:33:28.438Z,2.33
2023-05-14T12:35:58.936Z,2.40
2023-05-14T12:38:28.431Z,2.70
2023-05-14T12:40:56.195Z,2.97
2023-05-14T12:43:23.944Z,2.75
2023-05-14T12:45:51.661Z,2.90
2023-05-14T12:48:19.421Z,2.55
2023-05-14T12:50:48.705Z,2.80
2023-05-14T12:53:16.724Z,3.05
2023-05-14T12:55:44.496Z,2.42
2023-05-14T12:58:12.217Z,2.70
2023-05-14T13:00:39.965Z,2.60
2023-05-14T13:03:07.740Z,2.55
2023-05-14T13:05:35.700Z,2.60
2023-05-14T13:08:04.868Z,2.67
2023-05-14T13:10:32.623Z,2.58
2023-05-14T13:13:01.987Z,2.70
2023-05-14T13:15:31.477Z,2.72
2023-05-14T13:17:59.276Z,2.67
2023-05-14T13:20:27.423Z,2.75
2023-05-14T13:22:55.350Z,2.60
2023-05-14T13:25:24.844Z,2.33
2023-05-14T13:27:52.766Z,2.42
2023-05-14T13:30:20.850Z,2.30
2023-05-14T13:32:48.687Z,2.55
2023-05-14T13:35:16.488Z,2.80
2023-05-14T13:37:44.710Z,2.65
2023-05-14T13:40:13.288Z,2.55
2023-05-14T13:42:42.398Z,2.45
2023-05-14T13:45:11.675Z,2.70
2023-05-14T13:47:40.277Z,2.58
2023-05-14T13:50:09.026Z,2.30
2023-05-14T13:52:37.733Z,2.60
2023-05-14T13:55:06.325Z,2.58
2023-05-14T13:57:34.069Z,2.75
2023-05-14T14:00:03.215Z,2.70
2023-05-14T14:02:31.854Z,2.53
2023-05-14T14:05:00.607Z,4.00
2023-05-14T14:07:28.384Z,2.50
2023-05-14T14:09:56.130Z,2.30
2023-05-14T14:12:23.909Z,2.80
2023-05-14T14:14:52.195Z,2.90
2023-05-14T14:17:21.298Z,2.63
2023-05-14T14:19:48.972Z,2.80
2023-05-14T14:22:17.288Z,2.53
2023-05-14T14:24:45.074Z,2.35
2023-05-14T14:27:12.946Z,2.97
2023-05-14T14:29:40.685Z,2.60
2023-05-14T14:32:08.871Z,2.63
2023-05-14T14:34:38.027Z,2.35
2023-05-14T14:37:06.149Z,2.50
2023-05-14T14:39:33.858Z,2.20
2023-05-14T14:42:01.774Z,2.30
2023-05-14T14:44:29.497Z,3.10
2023-05-14T14:46:57.209Z,2.50
2023-05-14T14:49:24.986Z,2.30
2023-05-14T14:51:54.339Z,2.80
2023-05-14T14:54:22.070Z,2.30
2023-05-14T14:56:52.278Z,2.63
2023-05-14T14:59:20.016Z,2.40
2023-05-14T15:01:47.789Z,2.00
2023-05-14T15:04:15.604Z,2.00
2023-05-14T15:06:43.367Z,2.38
2023-05-14T15:09:12.457Z,2.33
2023-05-14T15:11:40.262Z,2.10
2023-05-14T15:14:08.136Z,2.17
2023-05-14T15:16:36.003Z,2.50
2023-05-14T15:19:03.869Z,1.90
2023-05-14T15:21:31.994Z,2.53
2023-05-14T15:23:59.701Z,5.63
2023-05-14T15:26:28.779Z,5.88
2023-05-14T15:28:57.781Z,4.40
2023-05-14T15:31:25.931Z,2.78
2023-05-14T15:33:55.921Z,2.70
2023-05-14T15:36:23.685Z,6.32
2023-05-14T15:38:51.420Z,2.42
2023-05-14T15:41:19.136Z,2.65
2023-05-14T15:43:48.186Z,2.05
2023-05-14T15:46:15.953Z,2.95
2023-05-14T15:48:43.700Z,2.88
2023-05-14T15:51:11.437Z,2.20
2023-05-14T15:53:39.235Z,2.15
2023-05-14T15:56:07.960Z,1.73
2023-05-14T15:58:35.694Z,2.45
2023-05-14T16:01:04.833Z,2.17
2023-05-14T16:03:32.682Z,3.92
2023-05-14T16:06:00.719Z,2.25
2023-05-14T16:08:28.486Z,3.03
2023-05-14T16:10:56.178Z,2.63
2023-05-14T16:13:23.958Z,2.60
2023-05-14T16:15:52.021Z,3.10
2023-05-14T16:18:22.018Z,2.90
2023-05-14T16:20:49.805Z,2.60
2023-05-14T16:23:17.887Z,3.03
2023-05-14T16:25:45.645Z,2.40
2023-05-14T16:28:13.916Z,2.45
2023-05-14T16:30:41.650Z,2.40
2023-05-14T16:33:09.369Z,2.63
2023-05-14T16:35:39.240Z,1.88
2023-05-14T16:38:06.924Z,2.63
2023-05-14T16:40:34.752Z,2.30
2023-05-14T16:43:02.469Z,2.15
2023-05-14T16:45:32.560Z,2.10
2023-05-14T16:48:01.095Z,2.08
2023-05-14T16:50:28.884Z,2.58
2023-05-14T16:52:57.989Z,2.40
2023-05-14T16:55:26.440Z,2.35
2023-05-14T16:57:54.260Z,2.53
2023-05-14T17:00:22.124Z,2.50
2023-05-14T17:02:52.059Z,2.67
2023-05-14T17:05:19.860Z,2.05
2023-05-14T17:07:47.785Z,2.00
2023-05-14T17:10:16.958Z,2.70
2023-05-14T17:12:44.833Z,2.38
2023-05-14T17:15:12.989Z,2.42
2023-05-14T17:17:40.820Z,2.45
2023-05-14T17:20:09.506Z,2.65
2023-05-14T17:22:37.407Z,5.88
2023-05-14T17:25:06.126Z,1.95
2023-05-14T17:27:36.075Z,2.97
2023-05-14T17:30:04.992Z,2.78
2023-05-14T17:32:33.002Z,2.67
2023-05-14T17:35:00.761Z,1.98
2023-05-14T17:37:28.599Z,2.47
2023-05-14T17:39:56.330Z,2.30
2023-05-14T17:42:24.037Z,2.30
2023-05-14T17:44:53.700Z,3.05
2023-05-14T17:47:22.126Z,2.65
2023-05-14T17:49:50.805Z,2.20
2023-05-14T17:52:19.013Z,2.75
2023-05-14T17:54:46.830Z,2.30
2023-05-14T17:57:14.607Z,2.30
2023-05-14T17:59:42.360Z,3.35
2023-05-14T18:02:11.378Z,2.25
2023-05-14T18:04:39.067Z,2.33
2023-05-14T18:07:06.832Z,1.85
2023-05-14T18:09:34.642Z,2.60
2023-05-14T18:12:02.342Z,2.28
2023-05-14T18:14:30.042Z,2.40
2023-05-14T18:16:57.865Z,2.53
2023-05-14T18:19:26.999Z,2.55
2023-05-14T18:21:55.395Z,1.98
2023-05-14T18:24:23.210Z,2.15
2023-05-14T18:26:51.028Z,2.25
2023-05-14T18:29:18.738Z,2.17
2023-05-14T18:31:46.498Z,1.80
2023-05-14T18:34:14.376Z,1.70
2023-05-14T18:36:43.778Z,1.95
2023-05-14T18:39:11.503Z,3.25
2023-05-14T18:41:39.222Z,3.00
2023-05-14T18:44:06.965Z,5.25
2023-05-14T18:46:35.011Z,2.38
2023-05-14T18:49:03.079Z,8.05
2023-05-14T18:51:30.799Z,3.35
2023-05-14T18:54:00.149Z,2.47
2023-05-14T18:56:28.092Z,2.72
2023-05-14T18:58:55.925Z,2.58
2023-05-14T19:01:25.420Z,2.55
2023-05-14T19:03:53.624Z,2.72
2023-05-14T19:06:21.491Z,2.38
2023-05-14T19:08:49.186Z,1.80
2023-05-14T19:11:18.650Z,2.92
2023-05-14T19:13:47.821Z,2.20
2023-05-14T19:16:15.610Z,1.40
2023-05-14T19:18:43.610Z,1.40
2023-05-14T19:21:11.454Z,1.40
2023-05-14T19:23:39.375Z,1.83
2023-05-14T19:26:07.562Z,1.83
2023-05-14T19:28:37.877Z,1.88
2023-05-14T19:31:05.804Z,2.08
2023-05-14T19:33:33.756Z,1.90
2023-05-14T19:36:01.815Z,1.70
2023-05-14T19:38:29.620Z,1.10
2023-05-14T19:40:57.755Z,1.15
2023-05-14T19:43:26.013Z,1.30
2023-05-14T19:45:55.179Z,1.35
2023-05-14T19:48:22.930Z,1.50
2023-05-14T19:50:51.986Z,1.95
2023-05-14T19:53:21.256Z,1.50
2023-05-14T19:55:49.159Z,1.73
2023-05-14T19:58:18.053Z,1.80
2023-05-14T20:00:47.157Z,2.50
2023-05-14T20:03:16.346Z,1.65
2023-05-14T20:05:46.035Z,1.80
2023-05-14T20:08:14.261Z,2.20
2023-05-14T20:10:42.455Z,1.38
2023-05-14T20:13:10.205Z,2.35
2023-05-14T20:15:38.080Z,2.50
2023-05-14T20:18:06.237Z,1.90
2023-05-14T20:20:35.840Z,1.70
2023-05-14T20:23:03.707Z,1.60
2023-05-14T20:25:33.221Z,2.30
2023-05-14T20:28:01.482Z,6.47
2023-05-14T20:30:29.531Z,3.20
2023-05-14T20:32:57.601Z,4.93
2023-05-14T20:35:25.861Z,2.85
2023-05-14T20:37:55.531Z,4.65
2023-05-14T20:40:23.564Z,2.38
2023-05-14T20:42:52.078Z,2.35
2023-05-14T20:45:20.010Z,1.67
2023-05-14T20:47:47.848Z,1.80
2023-05-14T20:50:15.622Z,2.00
2023-05-14T20:52:43.573Z,2.17
2023-05-14T20:55:13.203Z,1.65
2023-05-14T20:57:41.142Z,1.63
2023-05-14T21:00:13.197Z,1.80
2023-05-14T21:02:41.260Z,1.70
2023-05-14T21:05:09.509Z,2.53
2023-05-14T21:07:37.498Z,2.38
2023-05-14T21:10:05.910Z,1.70
2023-05-14T21:12:35.083Z,2.00
2023-05-14T21:15:02.852Z,1.60
2023-05-14T21:17:30.685Z,2.38
2023-05-14T21:19:58.491Z,3.60
2023-05-14T21:22:27.425Z,2.15
2023-05-14T21:24:56.007Z,2.22
2023-05-14T21:27:23.940Z,4.00
2023-05-14T21:29:53.167Z,4.03
2023-05-14T21:32:22.327Z,5.22
2023-05-14T21:34:50.103Z,3.22
2023-05-14T21:37:17.893Z,1.80
2023-05-14T21:39:45.826Z,1.90
2023-05-14T21:42:13.849Z,1.83
2023-05-14T21:44:41.591Z,2.22
2023-05-14T21:47:11.398Z,1.80
2023-05-14T21:49:39.289Z,1.60
2023-05-14T21:52:07.511Z,1.83
2023-05-14T21:54:35.290Z,1.83
2023-05-14T21:57:03.304Z,2.00
2023-05-14T21:59:31.016Z,1.73
2023-05-14T22:04:30.830Z,1.73
2023-05-14T22:06:58.550Z,1.90
2023-05-14T22:09:26.386Z,2.03
2023-05-14T22:11:54.102Z,2.33
2023-05-14T22:14:21.811Z,1.95
2023-05-14T22:16:49.801Z,1.90
2023-05-14T22:19:17.689Z,1.90
2023-05-14T22:21:46.864Z,2.92
2023-05-14T22:24:14.649Z,2.58
2023-05-14T22:26:42.478Z,2.72
2023-05-14T22:29:10.240Z,2.78
2023-05-14T22:31:38.133Z,2.05
2023-05-14T22:34:05.903Z,2.45
2023-05-14T22:36:33.632Z,2.60
2023-05-14T22:39:03.434Z,2.92
2023-05-14T22:41:31.264Z,2.65
2023-05-14T22:43:58.992Z,1.85
2023-05-14T22:46:26.873Z,2.15
2023-05-14T22:48:55.398Z,2.47
2023-05-14T22:51:23.115Z,2.30
2023-05-14T22:53:50.859Z,2.25
2023-05-14T22:56:21.648Z,2.67
2023-05-14T22:58:49.385Z,2.50
2023-05-14T23:01:17.192Z,3.22
2023-05-14T23:03:44.960Z,3.35
2023-05-14T23:06:14.300Z,3.40
2023-05-14T23:08:42.051Z,2.30
2023-05-14T23:11:09.815Z,2.90
2023-05-14T23:13:38.979Z,2.72
2023-05-14T23:16:06.907Z,2.53
2023-05-14T23:18:34.907Z,2.30
2023-05-14T23:21:02.765Z,2.22
2023-05-14T23:23:30.478Z,1.90
2023-05-14T23:25:58.233Z,2.25
2023-05-14T23:28:26.037Z,2.20
2023-05-14T23:30:55.065Z,1.90
2023-05-14T23:33:22.774Z,2.15
2023-05-14T23:35:50.633Z,1.90
2023-05-14T23:38:18.540Z,2.13
2023-05-14T23:40:46.342Z,2.03
2023-05-14T23:43:14.914Z,2.30
2023-05-14T23:45:43.044Z,2.22
2023-05-14T23:48:12.130Z,2.55
2023-05-14T23:50:39.849Z,2.15
2023-05-14T23:53:07.781Z,2.33
2023-05-14T23:55:35.779Z,2.35
2023-05-14T23:58:03.845Z,2.17
